Time;durP1;ratioP1;P1;durP2;ratioP2;P2;SDS_P1;SDS_P2;PMS_P1;PMS_P2;Temp;Humidity;BMP_temperature;BMP_pressure;BME280_temperature;BME280_humidity;BME280_pressure;Samples;Min_cycle;Max_cycle;Signal;HPM_P1;HPM_P2
2022/10/04 00:10:20;;;;;;;6.65;2.10;;;;;;;;;;5008861;28;20065;-62
2022/10/04 00:19:26;;;;;;;7.15;1.98;;;;;;;;;;5023062;28;20049;-60
2022/10/04 00:25:21;;;;;;;5.82;1.92;;;;;;;;;;5023224;28;20125;-59
2022/10/04 00:36:59;;;;;;;9.43;2.60;;;;;;;;;;5010234;28;21046;-61
2022/10/04 00:42:36;;;;;;;7.07;2.65;;;;;;;;;;4992152;28;20054;-62
2022/10/04 00:57:18;;;;;;;4.15;1.92;;;;;;;;;;5014146;28;20088;-63
2022/10/04 01:15:04;;;;;;;4.20;1.88;;;;;;;;;;5005082;28;20081;-62
2022/10/04 01:20:35;;;;;;;5.93;2.05;;;;;;;;;;5003900;28;20060;-58
2022/10/04 01:29:10;;;;;;;9.82;2.60;;;;;;;;;;5026424;28;20050;-61
2022/10/04 01:41:13;;;;;;;3.97;1.60;;;;;;;;;;5004746;28;20049;-62
2022/10/04 01:58:59;;;;;;;10.32;3.50;;;;;;;;;;5021717;28;20045;-61
2022/10/04 02:10:37;;;;;;;5.15;2.10;;;;;;;;;;5009770;28;20049;-63
2022/10/04 02:19:12;;;;;;;4.57;1.80;;;;;;;;;;5004615;28;20153;-62
2022/10/04 02:27:26;;;;;;;7.20;2.38;;;;;;;;;;5026022;28;20057;-59
2022/10/04 02:49:04;;;;;;;4.10;2.33;;;;;;;;;;4987104;28;20082;-61
2022/10/04 02:57:43;;;;;;;4.57;2.03;;;;;;;;;;5005289;28;20076;-63
2022/10/04 03:06:18;;;;;;;3.88;2.00;;;;;;;;;;5002034;28;20092;-64
2022/10/04 03:15:24;;;;;;;7.20;2.22;;;;;;;;;;4984873;28;20050;-59
2022/10/04 03:20:54;;;;;;;7.55;2.00;;;;;;;;;;4995346;28;20086;-63
2022/10/04 03:26:28;;;;;;;5.95;2.55;;;;;;;;;;4983698;28;20073;-61
2022/10/04 03:38:05;;;;;;;4.72;2.08;;;;;;;;;;4973879;28;20074;-64
2022/10/04 03:54:39;;;;;;;6.53;2.00;;;;;;;;;;5009007;28;20153;-61
2022/10/04 04:00:20;;;;;;;6.15;2.60;;;;;;;;;;4991509;28;20054;-61
2022/10/04 04:11:57;;;;;;;5.65;2.50;;;;;;;;;;4989750;28;20062;-64
2022/10/04 04:17:35;;;;;;;4.82;2.28;;;;;;;;;;4996497;28;20099;-61
2022/10/04 04:26:23;;;;;;;4.65;2.22;;;;;;;;;;5008394;28;20105;-61
2022/10/04 04:31:53;;;;;;;3.80;2.08;;;;;;;;;;5000641;28;20058;-64
2022/10/04 04:37:24;;;;;;;5.95;2.60;;;;;;;;;;5008174;28;20080;-62
2022/10/04 04:42:57;;;;;;;10.80;4.68;;;;;;;;;;4984312;28;20042;-64
2022/10/04 04:48:28;;;;;;;10.55;3.50;;;;;;;;;;4981816;28;20058;-59
2022/10/04 05:07:01;;;;;;;8.77;3.25;;;;;;;;;;5013519;28;20139;-62
2022/10/04 05:18:37;;;;;;;5.68;2.42;;;;;;;;;;5013578;28;20045;-61
2022/10/04 05:27:15;;;;;;;4.43;2.10;;;;;;;;;;5010312;28;20060;-62
2022/10/04 05:38:53;;;;;;;11.10;4.97;;;;;;;;;;5008086;28;20130;-63
2022/10/04 05:44:28;;;;;;;5.90;2.67;;;;;;;;;;5008504;28;20060;-62
2022/10/04 05:59:11;;;;;;;6.25;3.03;;;;;;;;;;5007040;28;20045;-62
2022/10/04 06:29:06;;;;;;;7.40;3.47;;;;;;;;;;5019706;28;20111;-61
2022/10/04 06:34:50;;;;;;;14.38;5.90;;;;;;;;;;5006817;28;20174;-64
2022/10/04 06:40:37;;;;;;;9.82;3.97;;;;;;;;;;5026410;28;20103;-61
2022/10/04 06:46:15;;;;;;;7.80;3.45;;;;;;;;;;5025802;28;20060;-62
2022/10/04 06:54:53;;;;;;;13.43;3.90;;;;;;;;;;5017210;28;20060;-63
2022/10/04 07:10:37;;;;;;;4.70;2.60;;;;;;;;;;4997571;28;20053;-62
2022/10/04 07:19:44;;;;;;;7.63;3.85;;;;;;;;;;5017196;28;20060;-65
2022/10/04 07:25:15;;;;;;;13.38;4.82;;;;;;;;;;5003418;28;20057;-63
2022/10/04 07:30:48;;;;;;;7.10;2.72;;;;;;;;;;5007346;28;20053;-61
2022/10/04 07:42:26;;;;;;;13.63;4.28;;;;;;;;;;4993680;28;20053;-61
2022/10/04 07:48:04;;;;;;;11.95;4.82;;;;;;;;;;5029047;28;20053;-61
2022/10/04 07:56:39;;;;;;;7.97;3.15;;;;;;;;;;5015113;28;20072;-59
2022/10/04 08:02:14;;;;;;;12.43;4.55;;;;;;;;;;5006735;28;20136;-60
2022/10/04 08:20:58;;;;;;;13.70;5.82;;;;;;;;;;4993292;28;20053;-62
2022/10/04 08:35:55;;;;;;;11.65;4.32;;;;;;;;;;5009677;28;20081;-63
2022/10/04 08:41:45;;;;;;;12.65;4.65;;;;;;;;;;5015101;28;20141;-62
2022/10/04 08:50:38;;;;;;;9.65;4.63;;;;;;;;;;4991528;28;20050;-62
2022/10/04 08:56:13;;;;;;;12.65;4.28;;;;;;;;;;4911987;29;20052;-60
2022/10/04 09:14:04;;;;;;;11.20;4.30;;;;;;;;;;4876060;29;20056;-61
2022/10/04 09:25:48;;;;;;;13.20;4.65;;;;;;;;;;4883109;29;20140;-62
2022/10/04 09:31:29;;;;;;;14.73;4.63;;;;;;;;;;4987368;28;20113;-61
2022/10/04 09:46:27;;;;;;;11.02;3.63;;;;;;;;;;4984478;28;20108;-60
2022/10/04 09:52:07;;;;;;;15.40;4.15;;;;;;;;;;5000763;28;20061;-60
2022/10/04 10:00:44;;;;;;;12.27;4.43;;;;;;;;;;4987938;28;20118;-60
2022/10/04 10:06:28;;;;;;;13.45;4.32;;;;;;;;;;4988955;28;20135;-64
2022/10/04 10:22:53;;;;;;;9.18;4.30;;;;;;;;;;4985035;28;20119;-59
2022/10/04 10:28:28;;;;;;;10.25;4.10;;;;;;;;;;4999440;28;20062;-61
2022/10/04 10:37:12;;;;;;;9.13;3.88;;;;;;;;;;4999976;28;20053;-58
2022/10/04 10:58:25;;;;;;;13.85;4.35;;;;;;;;;;4985593;28;20049;-60
2022/10/04 11:10:34;;;;;;;11.90;4.05;;;;;;;;;;4984812;28;20068;-58
2022/10/04 11:28:51;;;;;;;12.05;4.00;;;;;;;;;;4984567;28;20068;-59
2022/10/04 11:34:50;;;;;;;13.43;4.32;;;;;;;;;;4984540;28;20117;-61
2022/10/04 11:46:35;;;;;;;9.27;3.88;;;;;;;;;;4980801;28;20069;-60
2022/10/04 11:52:16;;;;;;;10.27;3.83;;;;;;;;;;4987673;28;20092;-61
2022/10/04 12:00:59;;;;;;;8.98;3.63;;;;;;;;;;4979017;28;20049;-62
2022/10/04 12:06:44;;;;;;;10.75;3.35;;;;;;;;;;4964683;28;20053;-62
2022/10/04 12:21:57;;;;;;;9.82;3.15;;;;;;;;;;5005747;28;20130;-62
2022/10/04 12:39:44;;;;;;;9.80;2.45;;;;;;;;;;5027760;28;20045;-63
2022/10/04 12:48:24;;;;;;;7.47;2.75;;;;;;;;;;5017462;28;20148;-65
2022/10/04 12:57:05;;;;;;;8.50;3.58;;;;;;;;;;4990018;28;20060;-63
2022/10/04 13:02:44;;;;;;;11.77;3.17;;;;;;;;;;5006362;28;20048;-66
2022/10/04 13:17:28;;;;;;;7.45;2.60;;;;;;;;;;4991215;28;20073;-59
2022/10/04 13:32:50;;;;;;;6.32;2.47;;;;;;;;;;5027948;28;20050;-61
2022/10/04 13:38:34;;;;;;;11.32;2.67;;;;;;;;;;5013754;28;20073;-62
2022/10/04 13:56:39;;;;;;;12.60;2.80;;;;;;;;;;5007965;28;20052;-59
2022/10/04 14:08:21;;;;;;;7.57;2.58;;;;;;;;;;5010208;28;20061;-60
2022/10/04 14:26:49;;;;;;;9.35;3.00;;;;;;;;;;5004733;28;20156;-59
2022/10/04 14:47:41;;;;;;;6.07;2.28;;;;;;;;;;4983405;28;20056;-61
2022/10/04 14:59:25;;;;;;;5.38;1.92;;;;;;;;;;4990666;28;20050;-62
2022/10/04 15:05:07;;;;;;;6.47;2.38;;;;;;;;;;4986625;28;20058;-60
2022/10/04 15:10:38;;;;;;;7.28;2.20;;;;;;;;;;4988681;28;20045;-58
2022/10/04 15:19:22;;;;;;;6.38;1.77;;;;;;;;;;4982731;28;20053;-59
2022/10/04 15:25:06;;;;;;;6.47;2.00;;;;;;;;;;4999521;28;19924;-59
2022/10/04 15:44:45;;;;;;;8.93;1.90;;;;;;;;;;5019317;28;20060;-61
2022/10/04 15:56:57;;;;;;;3.63;1.92;;;;;;;;;;5012444;28;20049;-62
2022/10/04 16:11:56;;;;;;;7.25;2.22;;;;;;;;;;5004802;28;20057;-62
2022/10/04 16:17:37;;;;;;;5.07;1.92;;;;;;;;;;5027347;28;20045;-60
2022/10/04 16:35:25;;;;;;;3.75;1.60;;;;;;;;;;5006504;28;20145;-59
2022/10/04 16:44:38;;;;;;;4.65;1.83;;;;;;;;;;4993866;28;20173;-58
2022/10/04 17:05:35;;;;;;;5.63;1.92;;;;;;;;;;5010491;28;20063;-62
2022/10/04 17:11:15;;;;;;;4.20;1.83;;;;;;;;;;5027561;28;20092;-61
2022/10/04 17:29:03;;;;;;;4.65;1.80;;;;;;;;;;5003485;28;20077;-58
2022/10/04 17:37:40;;;;;;;4.18;2.45;;;;;;;;;;5010494;28;20058;-59
2022/10/04 17:46:20;;;;;;;4.30;1.80;;;;;;;;;;5007029;28;20068;-64
2022/10/04 17:58:00;;;;;;;9.35;2.08;;;;;;;;;;5026677;28;20033;-63
2022/10/04 18:12:46;;;;;;;6.07;2.80;;;;;;;;;;5027541;28;20064;-64
2022/10/04 18:18:18;;;;;;;6.82;2.60;;;;;;;;;;5016005;28;20049;-62
2022/10/04 18:51:52;;;;;;;7.32;2.90;;;;;;;;;;5004973;28;20061;-62
2022/10/04 19:07:57;;;;;;;5.50;2.03;;;;;;;;;;5018490;28;20144;-61
2022/10/04 19:25:44;;;;;;;9.20;2.90;;;;;;;;;;5032015;28;20045;-62
2022/10/04 19:31:39;;;;;;;6.55;2.65;;;;;;;;;;5006491;28;20053;-62
2022/10/04 19:46:24;;;;;;;7.82;3.33;;;;;;;;;;5016147;28;20056;-60
2022/10/04 20:19:18;;;;;;;6.35;3.00;;;;;;;;;;5024199;28;20067;-60
2022/10/04 20:28:01;;;;;;;9.23;3.72;;;;;;;;;;5016360;28;20045;-63
2022/10/04 20:39:58;;;;;;;6.43;3.08;;;;;;;;;;5028377;28;20049;-62
2022/10/04 20:51:35;;;;;;;9.98;3.10;;;;;;;;;;5005626;28;20076;-62
2022/10/04 21:00:17;;;;;;;7.72;2.92;;;;;;;;;;5009392;28;20058;-62
2022/10/04 21:21:04;;;;;;;6.78;2.50;;;;;;;;;;4971623;28;20050;-61
2022/10/04 21:26:34;;;;;;;8.07;3.28;;;;;;;;;;5010077;28;20041;-60
2022/10/04 21:38:21;;;;;;;8.13;3.55;;;;;;;;;;5002773;28;20049;-61
2022/10/04 21:46:53;;;;;;;6.18;2.70;;;;;;;;;;5023950;28;20152;-61
2022/10/04 21:52:23;;;;;;;7.45;3.25;;;;;;;;;;5009396;28;20132;-63
2022/10/04 22:04:00;;;;;;;8.25;3.38;;;;;;;;;;5017491;28;20056;-62
2022/10/04 22:15:55;;;;;;;6.43;2.78;;;;;;;;;;5000962;28;20049;-60
2022/10/04 22:30:35;;;;;;;9.60;3.80;;;;;;;;;;5004999;28;20050;-60
2022/10/04 22:39:14;;;;;;;11.18;3.45;;;;;;;;;;5008326;28;20049;-62
2022/10/04 22:50:50;;;;;;;8.70;3.40;;;;;;;;;;4994375;28;20053;-58
2022/10/04 22:56:20;;;;;;;5.68;2.20;;;;;;;;;;5025652;28;20056;-60
2022/10/04 23:07:57;;;;;;;8.23;2.58;;;;;;;;;;5004156;28;20130;-64
2022/10/04 23:24:22;;;;;;;8.25;3.42;;;;;;;;;;5002700;28;20068;-61
2022/10/04 23:30:04;;;;;;;7.85;2.97;;;;;;;;;;5008665;28;20092;-62
2022/10/04 23:38:36;;;;;;;11.02;3.38;;;;;;;;;;5009671;28;20049;-62
2022/10/04 23:47:11;;;;;;;7.80;3.15;;;;;;;;;;5008580;28;20123;-63
2022/10/04 23:59:02;;;;;;;5.60;2.63;;;;;;;;;;5020946;28;20037;-60
